sensor_id;sensor_type;location;lat;lon;timestamp;temperature;humidity
78649;DHT22;67962;47.310;9.642;2023-07-29T00:00:43;19.90;72.60
78649;DHT22;67962;47.310;9.642;2023-07-29T00:03:09;19.90;72.70
78649;DHT22;67962;47.310;9.642;2023-07-29T00:05:36;19.90;72.90
78649;DHT22;67962;47.310;9.642;2023-07-29T00:08:02;19.90;72.60
78649;DHT22;67962;47.310;9.642;2023-07-29T00:10:28;20.00;72.60
78649;DHT22;67962;47.310;9.642;2023-07-29T00:12:54;20.00;72.50
78649;DHT22;67962;47.310;9.642;2023-07-29T00:15:19;20.00;72.40
78649;DHT22;67962;47.310;9.642;2023-07-29T00:17:45;19.90;72.80
78649;DHT22;67962;47.310;9.642;2023-07-29T00:20:11;20.00;72.90
78649;DHT22;67962;47.310;9.642;2023-07-29T00:22:36;19.90;72.70
78649;DHT22;67962;47.310;9.642;2023-07-29T00:25:02;19.90;72.50
78649;DHT22;67962;47.310;9.642;2023-07-29T00:27:28;19.90;72.80
78649;DHT22;67962;47.310;9.642;2023-07-29T00:29:54;19.90;73.00
78649;DHT22;67962;47.310;9.642;2023-07-29T00:32:19;19.80;73.10
78649;DHT22;67962;47.310;9.642;2023-07-29T00:34:45;19.80;73.50
78649;DHT22;67962;47.310;9.642;2023-07-29T00:37:11;19.80;73.50
78649;DHT22;67962;47.310;9.642;2023-07-29T00:39:37;19.80;73.10
78649;DHT22;67962;47.310;9.642;2023-07-29T00:42:04;19.90;73.00
78649;DHT22;67962;47.310;9.642;2023-07-29T00:44:30;19.90;72.60
78649;DHT22;67962;47.310;9.642;2023-07-29T00:46:57;19.80;71.80
78649;DHT22;67962;47.310;9.642;2023-07-29T00:49:24;19.80;72.00
78649;DHT22;67962;47.310;9.642;2023-07-29T00:51:50;19.90;72.40
78649;DHT22;67962;47.310;9.642;2023-07-29T00:54:16;19.80;72.50
78649;DHT22;67962;47.310;9.642;2023-07-29T00:56:42;19.80;72.70
78649;DHT22;67962;47.310;9.642;2023-07-29T00:59:08;19.80;72.90
78649;DHT22;67962;47.310;9.642;2023-07-29T01:01:34;19.80;72.90
78649;DHT22;67962;47.310;9.642;2023-07-29T01:03:59;19.80;72.80
78649;DHT22;67962;47.310;9.642;2023-07-29T01:08:54;19.70;73.10
78649;DHT22;67962;47.310;9.642;2023-07-29T01:16:42;19.70;72.90
78649;DHT22;67962;47.310;9.642;2023-07-29T01:19:26;19.80;73.00
78649;DHT22;67962;47.310;9.642;2023-07-29T01:21:57;19.80;73.00
78649;DHT22;67962;47.310;9.642;2023-07-29T01:24:23;19.80;73.00
78649;DHT22;67962;47.310;9.642;2023-07-29T01:26:49;19.70;72.90
78649;DHT22;67962;47.310;9.642;2023-07-29T01:29:15;19.70;72.70
78649;DHT22;67962;47.310;9.642;2023-07-29T01:31:44;19.70;72.70
78649;DHT22;67962;47.310;9.642;2023-07-29T01:34:21;19.70;72.60
78649;DHT22;67962;47.310;9.642;2023-07-29T01:36:50;19.80;72.50
78649;DHT22;67962;47.310;9.642;2023-07-29T01:39:17;19.70;72.60
78649;DHT22;67962;47.310;9.642;2023-07-29T01:41:44;19.90;72.50
78649;DHT22;67962;47.310;9.642;2023-07-29T01:44:11;19.90;72.20
78649;DHT22;67962;47.310;9.642;2023-07-29T01:46:37;19.90;72.00
78649;DHT22;67962;47.310;9.642;2023-07-29T01:49:03;19.90;71.90
78649;DHT22;67962;47.310;9.642;2023-07-29T01:51:28;19.90;72.10
78649;DHT22;67962;47.310;9.642;2023-07-29T01:53:54;19.90;72.10
78649;DHT22;67962;47.310;9.642;2023-07-29T01:56:21;19.90;72.10
78649;DHT22;67962;47.310;9.642;2023-07-29T01:58:47;19.90;72.20
78649;DHT22;67962;47.310;9.642;2023-07-29T02:01:12;19.90;72.00
78649;DHT22;67962;47.310;9.642;2023-07-29T02:03:38;19.90;71.80
78649;DHT22;67962;47.310;9.642;2023-07-29T02:06:04;19.90;71.70
78649;DHT22;67962;47.310;9.642;2023-07-29T02:08:30;20.00;71.60
78649;DHT22;67962;47.310;9.642;2023-07-29T02:10:55;19.80;71.10
78649;DHT22;67962;47.310;9.642;2023-07-29T02:13:21;19.70;71.00
78649;DHT22;67962;47.310;9.642;2023-07-29T02:15:47;19.60;71.20
78649;DHT22;67962;47.310;9.642;2023-07-29T02:18:12;19.60;71.40
78649;DHT22;67962;47.310;9.642;2023-07-29T02:20:38;19.50;71.60
78649;DHT22;67962;47.310;9.642;2023-07-29T02:23:04;19.40;71.80
78649;DHT22;67962;47.310;9.642;2023-07-29T02:25:30;19.30;71.90
78649;DHT22;67962;47.310;9.642;2023-07-29T02:27:55;19.30;72.20
78649;DHT22;67962;47.310;9.642;2023-07-29T02:30:21;19.40;72.40
78649;DHT22;67962;47.310;9.642;2023-07-29T02:32:47;19.40;72.60
78649;DHT22;67962;47.310;9.642;2023-07-29T02:35:13;19.40;72.40
78649;DHT22;67962;47.310;9.642;2023-07-29T02:37:38;19.40;72.30
78649;DHT22;67962;47.310;9.642;2023-07-29T02:40:04;19.40;72.10
78649;DHT22;67962;47.310;9.642;2023-07-29T02:42:31;19.40;72.10
78649;DHT22;67962;47.310;9.642;2023-07-29T02:44:57;19.50;72.20
78649;DHT22;67962;47.310;9.642;2023-07-29T02:47:23;19.40;72.20
78649;DHT22;67962;47.310;9.642;2023-07-29T02:49:48;19.40;72.00
78649;DHT22;67962;47.310;9.642;2023-07-29T02:52:14;19.30;72.10
78649;DHT22;67962;47.310;9.642;2023-07-29T02:54:40;19.40;72.00
78649;DHT22;67962;47.310;9.642;2023-07-29T02:57:05;19.40;71.70
78649;DHT22;67962;47.310;9.642;2023-07-29T02:59:31;19.40;71.70
78649;DHT22;67962;47.310;9.642;2023-07-29T03:01:57;19.40;71.70
78649;DHT22;67962;47.310;9.642;2023-07-29T03:04:22;19.40;71.80
78649;DHT22;67962;47.310;9.642;2023-07-29T03:06:48;19.40;71.40
78649;DHT22;67962;47.310;9.642;2023-07-29T03:09:14;19.40;71.30
78649;DHT22;67962;47.310;9.642;2023-07-29T03:11:40;19.40;71.30
78649;DHT22;67962;47.310;9.642;2023-07-29T03:14:05;19.40;71.30
78649;DHT22;67962;47.310;9.642;2023-07-29T03:16:31;19.50;71.10
78649;DHT22;67962;47.310;9.642;2023-07-29T03:18:57;19.50;71.10
78649;DHT22;67962;47.310;9.642;2023-07-29T03:21:23;19.50;71.00
78649;DHT22;67962;47.310;9.642;2023-07-29T03:23:48;19.40;71.00
78649;DHT22;67962;47.310;9.642;2023-07-29T03:26:14;19.50;71.00
78649;DHT22;67962;47.310;9.642;2023-07-29T03:28:42;19.50;71.00
78649;DHT22;67962;47.310;9.642;2023-07-29T03:31:08;19.50;70.90
78649;DHT22;67962;47.310;9.642;2023-07-29T03:33:34;19.50;71.00
78649;DHT22;67962;47.310;9.642;2023-07-29T03:36:00;19.50;71.00
78649;DHT22;67962;47.310;9.642;2023-07-29T03:38:25;19.60;71.20
78649;DHT22;67962;47.310;9.642;2023-07-29T03:40:51;19.60;71.30
78649;DHT22;67962;47.310;9.642;2023-07-29T03:43:17;19.60;71.60
78649;DHT22;67962;47.310;9.642;2023-07-29T03:45:42;19.50;71.10
78649;DHT22;67962;47.310;9.642;2023-07-29T03:48:08;19.50;71.10
78649;DHT22;67962;47.310;9.642;2023-07-29T03:50:35;19.40;71.40
78649;DHT22;67962;47.310;9.642;2023-07-29T03:53:02;19.40;71.50
78649;DHT22;67962;47.310;9.642;2023-07-29T03:55:28;19.40;71.30
78649;DHT22;67962;47.310;9.642;2023-07-29T03:57:56;19.50;71.30
78649;DHT22;67962;47.310;9.642;2023-07-29T04:00:22;19.50;71.70
78649;DHT22;67962;47.310;9.642;2023-07-29T04:02:47;19.50;71.50
78649;DHT22;67962;47.310;9.642;2023-07-29T04:05:13;19.50;71.60
78649;DHT22;67962;47.310;9.642;2023-07-29T04:07:40;19.50;71.90
78649;DHT22;67962;47.310;9.642;2023-07-29T04:10:06;19.40;72.30
78649;DHT22;67962;47.310;9.642;2023-07-29T04:12:32;19.40;72.40
78649;DHT22;67962;47.310;9.642;2023-07-29T04:14:58;19.40;72.20
78649;DHT22;67962;47.310;9.642;2023-07-29T04:17:24;19.30;72.80
78649;DHT22;67962;47.310;9.642;2023-07-29T04:19:49;19.20;73.10
78649;DHT22;67962;47.310;9.642;2023-07-29T04:22:16;19.20;73.40
78649;DHT22;67962;47.310;9.642;2023-07-29T04:24:42;19.10;73.50
78649;DHT22;67962;47.310;9.642;2023-07-29T04:27:08;19.20;73.40
78649;DHT22;67962;47.310;9.642;2023-07-29T04:29:33;19.20;73.20
78649;DHT22;67962;47.310;9.642;2023-07-29T04:32:01;19.30;73.60
78649;DHT22;67962;47.310;9.642;2023-07-29T04:34:27;19.30;74.30
78649;DHT22;67962;47.310;9.642;2023-07-29T04:36:53;19.20;74.50
78649;DHT22;67962;47.310;9.642;2023-07-29T04:39:18;19.20;75.00
78649;DHT22;67962;47.310;9.642;2023-07-29T04:41:44;19.10;75.30
78649;DHT22;67962;47.310;9.642;2023-07-29T04:44:10;19.10;75.50
78649;DHT22;67962;47.310;9.642;2023-07-29T04:46:36;19.10;75.70
78649;DHT22;67962;47.310;9.642;2023-07-29T04:49:02;19.20;75.60
78649;DHT22;67962;47.310;9.642;2023-07-29T04:51:28;19.20;75.30
78649;DHT22;67962;47.310;9.642;2023-07-29T04:53:54;19.30;75.10
78649;DHT22;67962;47.310;9.642;2023-07-29T04:56:19;19.30;75.20
78649;DHT22;67962;47.310;9.642;2023-07-29T04:58:45;19.30;75.00
78649;DHT22;67962;47.310;9.642;2023-07-29T05:01:11;19.30;74.90
78649;DHT22;67962;47.310;9.642;2023-07-29T05:03:36;19.40;74.90
78649;DHT22;67962;47.310;9.642;2023-07-29T05:06:03;19.40;74.60
78649;DHT22;67962;47.310;9.642;2023-07-29T05:08:29;19.40;74.50
78649;DHT22;67962;47.310;9.642;2023-07-29T05:10:55;19.50;74.80
78649;DHT22;67962;47.310;9.642;2023-07-29T05:13:22;19.40;75.30
78649;DHT22;67962;47.310;9.642;2023-07-29T05:15:48;19.40;75.60
78649;DHT22;67962;47.310;9.642;2023-07-29T05:18:15;19.40;75.80
78649;DHT22;67962;47.310;9.642;2023-07-29T05:20:41;19.40;76.00
78649;DHT22;67962;47.310;9.642;2023-07-29T05:23:06;19.40;76.10
78649;DHT22;67962;47.310;9.642;2023-07-29T05:25:32;19.40;76.30
78649;DHT22;67962;47.310;9.642;2023-07-29T05:28:03;19.50;75.90
78649;DHT22;67962;47.310;9.642;2023-07-29T05:30:30;19.60;76.30
78649;DHT22;67962;47.310;9.642;2023-07-29T05:33:00;19.60;76.40
78649;DHT22;67962;47.310;9.642;2023-07-29T05:35:26;19.60;76.40
78649;DHT22;67962;47.310;9.642;2023-07-29T05:37:51;19.60;76.40
78649;DHT22;67962;47.310;9.642;2023-07-29T05:40:17;19.60;76.40
78649;DHT22;67962;47.310;9.642;2023-07-29T05:42:43;19.60;76.40
78649;DHT22;67962;47.310;9.642;2023-07-29T05:45:10;19.60;75.20
78649;DHT22;67962;47.310;9.642;2023-07-29T05:47:36;19.70;76.60
78649;DHT22;67962;47.310;9.642;2023-07-29T05:50:03;19.70;75.30
78649;DHT22;67962;47.310;9.642;2023-07-29T05:52:30;19.80;75.00
78649;DHT22;67962;47.310;9.642;2023-07-29T05:54:56;20.00;74.90
78649;DHT22;67962;47.310;9.642;2023-07-29T05:57:22;20.30;74.30
78649;DHT22;67962;47.310;9.642;2023-07-29T05:59:48;20.60;73.90
78649;DHT22;67962;47.310;9.642;2023-07-29T06:02:13;20.80;74.00
78649;DHT22;67962;47.310;9.642;2023-07-29T06:04:39;21.10;73.10
78649;DHT22;67962;47.310;9.642;2023-07-29T06:07:05;21.30;72.80
78649;DHT22;67962;47.310;9.642;2023-07-29T06:09:31;21.40;72.50
78649;DHT22;67962;47.310;9.642;2023-07-29T06:11:57;21.30;72.40
78649;DHT22;67962;47.310;9.642;2023-07-29T06:14:22;21.20;72.70
78649;DHT22;67962;47.310;9.642;2023-07-29T06:16:48;21.10;73.00
78649;DHT22;67962;47.310;9.642;2023-07-29T06:19:14;21.20;73.10
78649;DHT22;67962;47.310;9.642;2023-07-29T06:21:40;21.10;72.90
78649;DHT22;67962;47.310;9.642;2023-07-29T06:24:05;21.00;73.10
78649;DHT22;67962;47.310;9.642;2023-07-29T06:26:31;20.90;72.80
78649;DHT22;67962;47.310;9.642;2023-07-29T06:28:56;20.90;72.60
78649;DHT22;67962;47.310;9.642;2023-07-29T06:31:22;21.00;72.60
78649;DHT22;67962;47.310;9.642;2023-07-29T06:33:48;20.90;72.70
78649;DHT22;67962;47.310;9.642;2023-07-29T06:36:13;20.80;73.40
78649;DHT22;67962;47.310;9.642;2023-07-29T06:38:39;20.70;73.90
78649;DHT22;67962;47.310;9.642;2023-07-29T06:41:06;20.80;74.20
78649;DHT22;67962;47.310;9.642;2023-07-29T06:43:32;20.90;73.50
78649;DHT22;67962;47.310;9.642;2023-07-29T06:45:58;21.00;73.30
78649;DHT22;67962;47.310;9.642;2023-07-29T06:48:23;21.00;72.80
78649;DHT22;67962;47.310;9.642;2023-07-29T06:50:49;21.00;72.60
78649;DHT22;67962;47.310;9.642;2023-07-29T06:53:16;21.00;72.30
78649;DHT22;67962;47.310;9.642;2023-07-29T06:55:42;21.00;72.50
78649;DHT22;67962;47.310;9.642;2023-07-29T06:58:08;21.00;72.70
78649;DHT22;67962;47.310;9.642;2023-07-29T07:00:34;21.00;72.40
78649;DHT22;67962;47.310;9.642;2023-07-29T07:03:00;20.90;72.40
78649;DHT22;67962;47.310;9.642;2023-07-29T07:05:26;20.90;72.90
78649;DHT22;67962;47.310;9.642;2023-07-29T07:07:52;20.80;73.50
78649;DHT22;67962;47.310;9.642;2023-07-29T07:10:18;20.80;74.10
78649;DHT22;67962;47.310;9.642;2023-07-29T07:12:44;20.80;74.20
78649;DHT22;67962;47.310;9.642;2023-07-29T07:15:09;20.90;74.30
78649;DHT22;67962;47.310;9.642;2023-07-29T07:17:35;21.10;74.80
78649;DHT22;67962;47.310;9.642;2023-07-29T07:20:01;21.50;75.00
78649;DHT22;67962;47.310;9.642;2023-07-29T07:22:26;22.10;74.10
78649;DHT22;67962;47.310;9.642;2023-07-29T07:24:52;22.50;72.90
78649;DHT22;67962;47.310;9.642;2023-07-29T07:27:18;22.80;71.70
78649;DHT22;67962;47.310;9.642;2023-07-29T07:29:44;23.10;70.60
78649;DHT22;67962;47.310;9.642;2023-07-29T07:32:09;23.40;69.00
78649;DHT22;67962;47.310;9.642;2023-07-29T07:34:35;23.90;68.50
78649;DHT22;67962;47.310;9.642;2023-07-29T07:37:01;24.20;67.70
78649;DHT22;67962;47.310;9.642;2023-07-29T07:39:26;24.50;66.40
78649;DHT22;67962;47.310;9.642;2023-07-29T07:41:52;24.60;66.30
78649;DHT22;67962;47.310;9.642;2023-07-29T07:44:18;24.80;65.20
78649;DHT22;67962;47.310;9.642;2023-07-29T07:46:45;25.00;64.60
78649;DHT22;67962;47.310;9.642;2023-07-29T07:49:11;25.20;63.10
78649;DHT22;67962;47.310;9.642;2023-07-29T07:51:38;25.30;64.00
78649;DHT22;67962;47.310;9.642;2023-07-29T07:54:03;25.40;63.90
78649;DHT22;67962;47.310;9.642;2023-07-29T07:56:29;25.40;63.80
78649;DHT22;67962;47.310;9.642;2023-07-29T07:58:55;25.40;63.40
78649;DHT22;67962;47.310;9.642;2023-07-29T08:01:20;25.40;62.10
78649;DHT22;67962;47.310;9.642;2023-07-29T08:03:46;25.30;62.40
78649;DHT22;67962;47.310;9.642;2023-07-29T08:06:12;25.20;61.70
78649;DHT22;67962;47.310;9.642;2023-07-29T08:08:37;25.10;61.90
78649;DHT22;67962;47.310;9.642;2023-07-29T08:11:03;25.20;62.00
78649;DHT22;67962;47.310;9.642;2023-07-29T08:13:29;25.20;61.90
78649;DHT22;67962;47.310;9.642;2023-07-29T08:15:54;25.30;62.30
78649;DHT22;67962;47.310;9.642;2023-07-29T08:18:20;25.60;61.80
78649;DHT22;67962;47.310;9.642;2023-07-29T08:20:57;25.80;61.30
78649;DHT22;67962;47.310;9.642;2023-07-29T08:23:25;25.90;59.80
78649;DHT22;67962;47.310;9.642;2023-07-29T08:25:54;26.00;59.10
78649;DHT22;67962;47.310;9.642;2023-07-29T08:28:22;26.00;59.20
78649;DHT22;67962;47.310;9.642;2023-07-29T08:30:48;25.90;58.50
78649;DHT22;67962;47.310;9.642;2023-07-29T08:33:14;26.00;59.20
78649;DHT22;67962;47.310;9.642;2023-07-29T08:35:39;26.10;58.90
78649;DHT22;67962;47.310;9.642;2023-07-29T08:38:05;26.20;59.00
78649;DHT22;67962;47.310;9.642;2023-07-29T08:40:32;26.30;58.10
78649;DHT22;67962;47.310;9.642;2023-07-29T08:43:04;26.30;57.60
78649;DHT22;67962;47.310;9.642;2023-07-29T08:45:34;26.20;58.60
78649;DHT22;67962;47.310;9.642;2023-07-29T08:48:02;26.40;58.60
78649;DHT22;67962;47.310;9.642;2023-07-29T08:50:32;26.60;58.40
78649;DHT22;67962;47.310;9.642;2023-07-29T08:52:59;26.80;57.80
78649;DHT22;67962;47.310;9.642;2023-07-29T08:55:26;26.90;57.40
78649;DHT22;67962;47.310;9.642;2023-07-29T08:57:53;26.80;57.00
78649;DHT22;67962;47.310;9.642;2023-07-29T09:00:23;26.70;57.20
78649;DHT22;67962;47.310;9.642;2023-07-29T09:02:53;26.60;56.50
78649;DHT22;67962;47.310;9.642;2023-07-29T09:05:21;26.40;57.40
78649;DHT22;67962;47.310;9.642;2023-07-29T09:07:48;26.40;56.50
78649;DHT22;67962;47.310;9.642;2023-07-29T09:10:21;26.30;57.00
78649;DHT22;67962;47.310;9.642;2023-07-29T09:12:47;26.00;58.20
78649;DHT22;67962;47.310;9.642;2023-07-29T09:15:12;25.90;58.30
78649;DHT22;67962;47.310;9.642;2023-07-29T09:17:40;25.70;58.90
78649;DHT22;67962;47.310;9.642;2023-07-29T09:20:09;25.80;58.60
78649;DHT22;67962;47.310;9.642;2023-07-29T09:22:35;25.90;58.60
78649;DHT22;67962;47.310;9.642;2023-07-29T09:25:01;25.90;60.40
78649;DHT22;67962;47.310;9.642;2023-07-29T09:27:27;26.40;58.50
78649;DHT22;67962;47.310;9.642;2023-07-29T09:29:53;26.90;57.50
78649;DHT22;67962;47.310;9.642;2023-07-29T09:32:24;27.30;55.20
78649;DHT22;67962;47.310;9.642;2023-07-29T09:34:50;27.60;53.00
78649;DHT22;67962;47.310;9.642;2023-07-29T09:37:17;27.70;52.80
78649;DHT22;67962;47.310;9.642;2023-07-29T09:39:47;27.80;51.50
78649;DHT22;67962;47.310;9.642;2023-07-29T09:42:18;28.00;51.00
78649;DHT22;67962;47.310;9.642;2023-07-29T09:44:45;27.90;49.60
78649;DHT22;67962;47.310;9.642;2023-07-29T09:47:22;27.50;51.60
78649;DHT22;67962;47.310;9.642;2023-07-29T09:49:48;27.30;53.00
78649;DHT22;67962;47.310;9.642;2023-07-29T09:52:16;27.10;54.10
78649;DHT22;67962;47.310;9.642;2023-07-29T09:54:43;27.00;54.10
78649;DHT22;67962;47.310;9.642;2023-07-29T09:57:10;27.10;54.40
78649;DHT22;67962;47.310;9.642;2023-07-29T09:59:36;27.10;54.10
78649;DHT22;67962;47.310;9.642;2023-07-29T10:02:02;27.10;53.00
78649;DHT22;67962;47.310;9.642;2023-07-29T10:04:29;27.20;52.50
78649;DHT22;67962;47.310;9.642;2023-07-29T10:06:56;27.30;51.90
78649;DHT22;67962;47.310;9.642;2023-07-29T10:09:23;27.30;52.00
78649;DHT22;67962;47.310;9.642;2023-07-29T10:11:49;27.40;52.40
78649;DHT22;67962;47.310;9.642;2023-07-29T10:14:16;27.80;53.50
78649;DHT22;67962;47.310;9.642;2023-07-29T10:16:43;28.10;52.10
78649;DHT22;67962;47.310;9.642;2023-07-29T10:19:11;28.40;53.10
78649;DHT22;67962;47.310;9.642;2023-07-29T10:21:41;28.90;52.80
78649;DHT22;67962;47.310;9.642;2023-07-29T10:24:15;29.40;51.50
78649;DHT22;67962;47.310;9.642;2023-07-29T10:26:46;29.70;50.80
78649;DHT22;67962;47.310;9.642;2023-07-29T10:29:13;30.00;49.80
78649;DHT22;67962;47.310;9.642;2023-07-29T10:31:42;30.40;49.70
78649;DHT22;67962;47.310;9.642;2023-07-29T10:34:09;30.60;49.50
78649;DHT22;67962;47.310;9.642;2023-07-29T10:36:35;30.80;49.00
78649;DHT22;67962;47.310;9.642;2023-07-29T10:39:01;30.80;48.30
78649;DHT22;67962;47.310;9.642;2023-07-29T10:42:01;30.80;48.10
78649;DHT22;67962;47.310;9.642;2023-07-29T10:49:41;30.50;48.40
78649;DHT22;67962;47.310;9.642;2023-07-29T10:52:07;30.40;46.70
78649;DHT22;67962;47.310;9.642;2023-07-29T10:54:46;30.40;46.60
78649;DHT22;67962;47.310;9.642;2023-07-29T10:57:17;30.40;46.60
78649;DHT22;67962;47.310;9.642;2023-07-29T10:59:56;30.40;47.20
78649;DHT22;67962;47.310;9.642;2023-07-29T11:02:32;30.50;45.60
78649;DHT22;67962;47.310;9.642;2023-07-29T11:04:59;30.60;45.70
78649;DHT22;67962;47.310;9.642;2023-07-29T11:07:29;30.60;46.00
78649;DHT22;67962;47.310;9.642;2023-07-29T11:09:59;30.80;47.10
78649;DHT22;67962;47.310;9.642;2023-07-29T11:17:33;31.30;43.30
78649;DHT22;67962;47.310;9.642;2023-07-29T11:20:03;31.40;42.80
78649;DHT22;67962;47.310;9.642;2023-07-29T11:22:30;31.40;43.70
78649;DHT22;67962;47.310;9.642;2023-07-29T11:24:56;31.50;43.30
78649;DHT22;67962;47.310;9.642;2023-07-29T11:27:22;31.60;43.90
78649;DHT22;67962;47.310;9.642;2023-07-29T11:29:48;32.00;44.10
78649;DHT22;67962;47.310;9.642;2023-07-29T11:32:14;32.10;43.40
78649;DHT22;67962;47.310;9.642;2023-07-29T11:34:41;32.00;42.20
78649;DHT22;67962;47.310;9.642;2023-07-29T11:37:09;31.80;39.80
78649;DHT22;67962;47.310;9.642;2023-07-29T11:39:40;31.70;40.70
78649;DHT22;67962;47.310;9.642;2023-07-29T11:42:07;31.80;40.80
78649;DHT22;67962;47.310;9.642;2023-07-29T11:44:36;32.10;41.20
78649;DHT22;67962;47.310;9.642;2023-07-29T11:47:02;32.20;41.50
78649;DHT22;67962;47.310;9.642;2023-07-29T11:49:33;32.20;42.40
78649;DHT22;67962;47.310;9.642;2023-07-29T11:51:58;32.00;43.20
78649;DHT22;67962;47.310;9.642;2023-07-29T11:54:25;32.10;42.60
78649;DHT22;67962;47.310;9.642;2023-07-29T11:56:51;32.30;42.70
78649;DHT22;67962;47.310;9.642;2023-07-29T11:59:16;32.10;38.60
78649;DHT22;67962;47.310;9.642;2023-07-29T12:01:42;31.80;41.10
78649;DHT22;67962;47.310;9.642;2023-07-29T12:04:09;31.30;41.30
78649;DHT22;67962;47.310;9.642;2023-07-29T12:06:35;31.10;43.30
78649;DHT22;67962;47.310;9.642;2023-07-29T12:09:01;30.70;43.40
78649;DHT22;67962;47.310;9.642;2023-07-29T12:11:26;30.30;42.60
78649;DHT22;67962;47.310;9.642;2023-07-29T12:13:54;30.00;42.80
78649;DHT22;67962;47.310;9.642;2023-07-29T12:16:19;29.70;42.80
78649;DHT22;67962;47.310;9.642;2023-07-29T12:18:45;29.50;44.00
78649;DHT22;67962;47.310;9.642;2023-07-29T12:21:14;29.20;43.90
78649;DHT22;67962;47.310;9.642;2023-07-29T12:23:39;28.90;45.10
78649;DHT22;67962;47.310;9.642;2023-07-29T12:26:05;28.70;46.30
78649;DHT22;67962;47.310;9.642;2023-07-29T12:28:31;28.60;47.50
78649;DHT22;67962;47.310;9.642;2023-07-29T12:30:58;28.30;48.40
78649;DHT22;67962;47.310;9.642;2023-07-29T12:33:36;28.10;48.90
78649;DHT22;67962;47.310;9.642;2023-07-29T12:36:04;28.00;50.50
78649;DHT22;67962;47.310;9.642;2023-07-29T12:38:30;27.60;50.90
78649;DHT22;67962;47.310;9.642;2023-07-29T12:40:56;27.40;50.40
78649;DHT22;67962;47.310;9.642;2023-07-29T12:43:22;27.30;50.20
78649;DHT22;67962;47.310;9.642;2023-07-29T12:45:51;27.10;51.70
78649;DHT22;67962;47.310;9.642;2023-07-29T12:48:17;27.00;54.30
78649;DHT22;67962;47.310;9.642;2023-07-29T12:50:43;26.80;55.10
78649;DHT22;67962;47.310;9.642;2023-07-29T12:53:09;26.70;56.10
78649;DHT22;67962;47.310;9.642;2023-07-29T12:55:38;26.50;56.20
78649;DHT22;67962;47.310;9.642;2023-07-29T12:58:04;26.30;56.10
78649;DHT22;67962;47.310;9.642;2023-07-29T13:00:30;26.10;58.10
78649;DHT22;67962;47.310;9.642;2023-07-29T13:02:56;25.90;60.30
78649;DHT22;67962;47.310;9.642;2023-07-29T13:05:22;25.60;62.00
78649;DHT22;67962;47.310;9.642;2023-07-29T13:07:47;25.20;63.80
78649;DHT22;67962;47.310;9.642;2023-07-29T13:10:13;24.60;63.20
78649;DHT22;67962;47.310;9.642;2023-07-29T13:12:40;24.20;63.90
78649;DHT22;67962;47.310;9.642;2023-07-29T13:15:06;23.90;65.10
78649;DHT22;67962;47.310;9.642;2023-07-29T13:17:33;23.70;65.80
78649;DHT22;67962;47.310;9.642;2023-07-29T13:19:59;23.70;67.20
78649;DHT22;67962;47.310;9.642;2023-07-29T13:22:24;23.70;66.50
78649;DHT22;67962;47.310;9.642;2023-07-29T13:24:50;23.80;66.70
78649;DHT22;67962;47.310;9.642;2023-07-29T13:27:16;23.80;67.80
78649;DHT22;67962;47.310;9.642;2023-07-29T13:29:42;23.80;66.40
78649;DHT22;67962;47.310;9.642;2023-07-29T13:32:09;23.90;66.70
78649;DHT22;67962;47.310;9.642;2023-07-29T13:34:34;24.00;66.60
78649;DHT22;67962;47.310;9.642;2023-07-29T13:37:00;24.10;66.70
78649;DHT22;67962;47.310;9.642;2023-07-29T13:39:26;24.10;68.00
78649;DHT22;67962;47.310;9.642;2023-07-29T13:41:53;23.90;66.60
78649;DHT22;67962;47.310;9.642;2023-07-29T13:44:19;23.80;67.20
78649;DHT22;67962;47.310;9.642;2023-07-29T13:46:44;23.60;67.30
78649;DHT22;67962;47.310;9.642;2023-07-29T13:49:10;23.50;66.80
78649;DHT22;67962;47.310;9.642;2023-07-29T13:51:36;23.30;67.30
78649;DHT22;67962;47.310;9.642;2023-07-29T13:54:02;23.20;68.40
78649;DHT22;67962;47.310;9.642;2023-07-29T13:56:28;23.10;68.90
78649;DHT22;67962;47.310;9.642;2023-07-29T13:58:53;23.00;68.50
78649;DHT22;67962;47.310;9.642;2023-07-29T14:01:19;22.90;68.00
78649;DHT22;67962;47.310;9.642;2023-07-29T14:03:45;22.70;68.40
78649;DHT22;67962;47.310;9.642;2023-07-29T14:06:10;22.50;69.00
78649;DHT22;67962;47.310;9.642;2023-07-29T14:08:36;22.30;68.90
78649;DHT22;67962;47.310;9.642;2023-07-29T14:11:02;22.10;69.50
78649;DHT22;67962;47.310;9.642;2023-07-29T14:13:27;22.00;69.60
78649;DHT22;67962;47.310;9.642;2023-07-29T14:15:53;21.80;68.30
78649;DHT22;67962;47.310;9.642;2023-07-29T14:18:19;21.60;69.70
78649;DHT22;67962;47.310;9.642;2023-07-29T14:20:45;21.70;70.40
78649;DHT22;67962;47.310;9.642;2023-07-29T14:23:11;21.70;70.30
78649;DHT22;67962;47.310;9.642;2023-07-29T14:25:36;21.70;70.30
78649;DHT22;67962;47.310;9.642;2023-07-29T14:28:02;21.60;70.00
78649;DHT22;67962;47.310;9.642;2023-07-29T14:30:28;21.60;70.10
78649;DHT22;67962;47.310;9.642;2023-07-29T14:32:53;21.60;69.80
78649;DHT22;67962;47.310;9.642;2023-07-29T14:35:19;21.60;69.90
78649;DHT22;67962;47.310;9.642;2023-07-29T14:37:45;21.50;70.80
78649;DHT22;67962;47.310;9.642;2023-07-29T14:40:10;21.50;70.60
78649;DHT22;67962;47.310;9.642;2023-07-29T14:42:36;21.40;70.90
78649;DHT22;67962;47.310;9.642;2023-07-29T14:45:02;21.50;70.90
78649;DHT22;67962;47.310;9.642;2023-07-29T14:47:28;21.50;71.30
78649;DHT22;67962;47.310;9.642;2023-07-29T14:49:53;21.40;70.20
78649;DHT22;67962;47.310;9.642;2023-07-29T14:52:19;21.30;70.70
78649;DHT22;67962;47.310;9.642;2023-07-29T14:54:44;21.30;70.90
78649;DHT22;67962;47.310;9.642;2023-07-29T14:57:10;21.30;71.20
78649;DHT22;67962;47.310;9.642;2023-07-29T14:59:36;21.20;71.60
78649;DHT22;67962;47.310;9.642;2023-07-29T15:02:02;21.20;71.80
78649;DHT22;67962;47.310;9.642;2023-07-29T15:04:28;21.10;71.90
78649;DHT22;67962;47.310;9.642;2023-07-29T15:06:53;21.10;72.40
78649;DHT22;67962;47.310;9.642;2023-07-29T15:09:19;21.10;72.40
78649;DHT22;67962;47.310;9.642;2023-07-29T15:11:45;21.10;72.00
78649;DHT22;67962;47.310;9.642;2023-07-29T15:14:10;21.20;72.00
78649;DHT22;67962;47.310;9.642;2023-07-29T15:16:36;21.20;71.80
78649;DHT22;67962;47.310;9.642;2023-07-29T15:19:04;21.20;71.50
78649;DHT22;67962;47.310;9.642;2023-07-29T15:21:30;21.20;70.80
78649;DHT22;67962;47.310;9.642;2023-07-29T15:23:55;21.20;71.50
78649;DHT22;67962;47.310;9.642;2023-07-29T15:26:21;21.20;71.90
78649;DHT22;67962;47.310;9.642;2023-07-29T15:28:47;21.20;72.30
78649;DHT22;67962;47.310;9.642;2023-07-29T15:31:13;21.20;72.70
78649;DHT22;67962;47.310;9.642;2023-07-29T15:33:38;21.20;72.90
78649;DHT22;67962;47.310;9.642;2023-07-29T15:36:04;21.30;73.30
78649;DHT22;67962;47.310;9.642;2023-07-29T15:38:30;21.30;73.40
78649;DHT22;67962;47.310;9.642;2023-07-29T15:40:56;21.30;73.30
78649;DHT22;67962;47.310;9.642;2023-07-29T15:43:22;21.30;73.50